Ames, Iowa
Current Conditions -  °F | °C
As of 11:53 AM on Saturday 25 Oct 2014 (Local Time) from KAMW Reporting Station
Clear Clear  
Wind Chill: 65°   Ceiling: Unl
Heat Index: 65°   Visibility: 10mi
Dew Point: 41°   Wind: 12mph
Humidity: 42%   Direction: 30°NNE
Pressure: 30.11"   Gusts: NA
Location:  42.03°N, 93.62°W
Report Text: KAMW 251653Z AUTO 03010KT 10SM CLR 18/05 A3011 RMK AO2 SLP193 T01830050
Loading
Personal Weather Stations






























Interactive Weather Map
Tropical Storm Tracking
New forecast layout! Learn more

10-Day Weather Forecast

Advertisements
Track Severe Weather on mobile